Time;durP1;ratioP1;P1;durP2;ratioP2;P2;SDS_P1;SDS_P2;PMS_P1;PMS_P2;Temp;Humidity;BMP_temperature;BMP_pressure;BME280_temperature;BME280_humidity;BME280_pressure;Samples;Min_cycle;Max_cycle;Signal;HPM_P1;HPM_P2
2023/01/09 00:01:59;;;;;;;125.50;75.90;;;;;;;1.66;100.00;96988.90;106526;1254;59208;-77
2023/01/09 00:04:25;;;;;;;115.70;68.00;;;;;;;1.63;100.00;96983.84;106577;1254;59205;-79
2023/01/09 00:06:55;;;;;;;119.60;68.40;;;;;;;1.57;100.00;96978.31;106560;1254;58944;-77
2023/01/09 00:09:22;;;;;;;119.00;64.20;;;;;;;1.53;100.00;96971.67;106561;1252;59153;-77
2023/01/09 00:11:48;;;;;;;103.80;60.30;;;;;;;1.52;100.00;96974.27;106493;1254;72047;-77
2023/01/09 00:14:16;;;;;;;129.80;68.90;;;;;;;1.49;100.00;96973.08;106487;1254;70170;-78
2023/01/09 00:16:42;;;;;;;117.70;61.00;;;;;;;1.48;100.00;96971.84;106523;1253;71357;-79
2023/01/09 00:19:09;;;;;;;113.80;63.00;;;;;;;1.48;100.00;96971.63;106549;1254;59930;-79
2023/01/09 00:21:36;;;;;;;111.10;57.50;;;;;;;1.49;100.00;96975.91;106528;1256;60424;-77
2023/01/09 00:24:02;;;;;;;108.30;58.30;;;;;;;1.49;100.00;96981.83;106608;1253;59209;-78
2023/01/09 00:26:29;;;;;;;101.80;55.40;;;;;;;1.50;100.00;96982.91;106535;1253;70914;-77
2023/01/09 00:28:55;;;;;;;107.80;60.40;;;;;;;1.49;100.00;96978.36;106562;1253;60542;-78
2023/01/09 00:31:21;;;;;;;100.30;56.30;;;;;;;1.49;100.00;96978.79;106540;1254;59019;-77
2023/01/09 00:33:58;;;;;;;105.60;55.90;;;;;;;1.49;100.00;96982.85;106562;1254;60536;-79
2023/01/09 00:36:24;;;;;;;95.40;55.10;;;;;;;1.48;100.00;96977.66;106464;1253;72195;-77
2023/01/09 00:38:51;;;;;;;103.30;56.30;;;;;;;1.45;100.00;96979.80;106622;1253;60307;-78
2023/01/09 00:41:20;;;;;;;97.00;56.00;;;;;;;1.41;100.00;96981.46;106501;1254;61281;-76
2023/01/09 00:43:50;;;;;;;99.80;57.10;;;;;;;1.40;100.00;96978.19;106537;1254;59932;-79
2023/01/09 00:46:17;;;;;;;101.70;53.00;;;;;;;1.38;100.00;96976.52;106635;1254;60197;-78
2023/01/09 00:48:43;;;;;;;97.10;55.30;;;;;;;1.36;100.00;96978.49;106545;1252;73671;-78
2023/01/09 00:51:10;;;;;;;85.70;59.00;;;;;;;1.33;100.00;96986.27;106633;1254;70934;-77
2023/01/09 00:53:37;;;;;;;77.30;43.30;;;;;;;1.33;100.00;96975.58;106628;1254;60449;-79
2023/01/09 00:56:06;;;;;;;80.30;37.40;;;;;;;1.32;100.00;96973.27;106632;1254;60414;-79
2023/01/09 00:58:32;;;;;;;81.60;46.60;;;;;;;1.32;100.00;96966.34;106493;1254;60898;-78
2023/01/09 01:00:59;;;;;;;83.30;45.40;;;;;;;1.32;100.00;96965.86;106635;1254;60536;-78
2023/01/09 01:03:25;;;;;;;95.50;50.50;;;;;;;1.31;100.00;96969.70;106535;1254;60546;-77
2023/01/09 01:08:37;;;;;;;98.80;57.30;;;;;;;1.28;100.00;96975.23;106657;1254;60411;-77
2023/01/09 01:11:05;;;;;;;105.60;59.40;;;;;;;1.25;100.00;96971.30;106699;1254;60409;-77
2023/01/09 01:13:31;;;;;;;103.40;60.70;;;;;;;1.17;100.00;96974.86;106642;1254;73748;-77
2023/01/09 01:15:57;;;;;;;88.20;49.00;;;;;;;1.10;100.00;96976.22;106542;1257;59964;-78
2023/01/09 01:18:24;;;;;;;74.10;40.10;;;;;;;1.02;100.00;96975.03;106685;1253;59943;-77
2023/01/09 01:20:50;;;;;;;55.00;32.80;;;;;;;1.01;100.00;96969.52;106572;1253;59045;-76
2023/01/09 01:23:17;;;;;;;65.00;38.90;;;;;;;1.02;100.00;96982.75;106612;1254;59324;-78
2023/01/09 01:25:43;;;;;;;68.20;35.80;;;;;;;1.03;100.00;96979.10;106633;1254;59052;-77
2023/01/09 01:28:10;;;;;;;58.60;31.40;;;;;;;0.99;100.00;96965.48;106588;1255;61339;-78
2023/01/09 01:30:38;;;;;;;92.50;51.70;;;;;;;0.96;100.00;96969.77;106590;1254;61393;-78
2023/01/09 01:33:04;;;;;;;92.90;51.80;;;;;;;0.97;100.00;96961.98;106647;1252;60010;-77
2023/01/09 01:35:31;;;;;;;69.20;40.90;;;;;;;0.97;100.00;96957.13;106670;1253;59004;-78
2023/01/09 01:37:57;;;;;;;86.00;49.60;;;;;;;0.97;100.00;96952.76;106650;1256;60446;-77
2023/01/09 01:40:23;;;;;;;71.10;40.10;;;;;;;0.99;100.00;96952.46;106616;1254;61132;-78
2023/01/09 01:42:51;;;;;;;103.30;58.50;;;;;;;1.00;100.00;96952.80;106646;1253;61307;-79
2023/01/09 01:45:20;;;;;;;97.50;56.00;;;;;;;1.01;100.00;96956.39;106897;1254;60217;-78
2023/01/09 01:47:59;;;;;;;79.70;45.50;;;;;;;0.99;100.00;96950.86;106612;1252;60483;-77
2023/01/09 01:50:26;;;;;;;76.00;39.20;;;;;;;0.94;100.00;96951.97;106647;1254;74409;-78
2023/01/09 01:53:25;;;;;;;64.10;35.20;;;;;;;0.94;100.00;96950.02;106604;1254;60286;-77
2023/01/09 01:56:16;;;;;;;72.90;41.60;;;;;;;0.94;100.00;96948.64;106501;1254;71629;-78
2023/01/09 01:58:50;;;;;;;63.70;38.10;;;;;;;0.92;100.00;96936.63;106665;1252;60942;-78
2023/01/09 02:01:17;;;;;;;77.10;45.40;;;;;;;0.91;100.00;96933.94;106637;1253;60463;-77
2023/01/09 02:03:43;;;;;;;80.20;46.20;;;;;;;0.94;100.00;96933.75;106523;1254;59874;-77
2023/01/09 02:06:09;;;;;;;67.40;39.40;;;;;;;0.94;100.00;96933.02;106639;1256;61193;-78
2023/01/09 02:08:36;;;;;;;62.20;38.00;;;;;;;0.91;100.00;96921.35;106514;1254;61163;-77
2023/01/09 02:11:03;;;;;;;62.80;36.20;;;;;;;0.85;100.00;96926.39;106538;1254;60092;-78
2023/01/09 02:13:29;;;;;;;65.00;37.20;;;;;;;0.80;100.00;96934.63;106713;1254;60016;-76
2023/01/09 02:16:17;;;;;;;83.10;48.50;;;;;;;0.81;100.00;96940.84;106513;1252;59011;-78
2023/01/09 02:19:00;;;;;;;109.80;64.50;;;;;;;0.81;100.00;96942.75;106625;1253;71045;-77
2023/01/09 02:21:38;;;;;;;97.50;52.90;;;;;;;0.80;100.00;96940.29;106604;1254;72573;-79
2023/01/09 02:24:15;;;;;;;94.50;54.70;;;;;;;0.81;100.00;96938.80;106705;1251;60398;-76
2023/01/09 02:27:07;;;;;;;108.40;65.10;;;;;;;0.79;100.00;96934.63;106615;1253;60055;-77
2023/01/09 02:29:43;;;;;;;120.60;70.80;;;;;;;0.80;100.00;96929.83;106526;1254;73743;-78
2023/01/09 02:32:28;;;;;;;126.00;76.70;;;;;;;0.79;100.00;96921.19;106519;1254;71121;-77
2023/01/09 02:35:17;;;;;;;128.60;78.20;;;;;;;0.78;100.00;96931.83;106680;1254;71344;-78
2023/01/09 02:38:12;;;;;;;125.40;71.40;;;;;;;0.77;100.00;96918.75;106636;1253;60820;-78
2023/01/09 02:40:47;;;;;;;121.90;73.10;;;;;;;0.73;100.00;96914.20;106609;1254;60389;-78
2023/01/09 02:43:13;;;;;;;109.60;66.50;;;;;;;0.71;100.00;96921.36;106596;1253;72717;-77
2023/01/09 02:45:39;;;;;;;103.10;59.60;;;;;;;0.69;100.00;96927.11;106418;1254;59877;-77
2023/01/09 02:48:09;;;;;;;85.60;55.30;;;;;;;0.64;100.00;96928.83;106616;1254;59205;-78
2023/01/09 02:50:40;;;;;;;74.00;43.70;;;;;;;0.59;100.00;96919.69;106655;1253;61090;-78
2023/01/09 02:53:23;;;;;;;49.60;32.90;;;;;;;0.51;100.00;96909.17;106628;1253;60234;-76
2023/01/09 02:55:51;;;;;;;51.50;28.90;;;;;;;0.49;100.00;96908.23;106590;1254;73764;-78
2023/01/09 02:58:39;;;;;;;60.60;33.40;;;;;;;0.51;100.00;96902.83;106613;1254;70095;-77
2023/01/09 03:01:31;;;;;;;71.00;37.70;;;;;;;0.54;100.00;96906.29;106593;1254;62881;-79
2023/01/09 03:04:02;;;;;;;76.20;44.60;;;;;;;0.53;100.00;96904.84;106559;1253;60406;-79
2023/01/09 03:07:00;;;;;;;79.40;41.50;;;;;;;0.48;100.00;96898.89;106520;1252;60184;-77
2023/01/09 03:09:28;;;;;;;78.00;43.20;;;;;;;0.48;100.00;96898.30;106588;1254;72916;-78
2023/01/09 03:11:58;;;;;;;82.90;50.20;;;;;;;0.47;100.00;96897.31;106706;1254;69937;-78
2023/01/09 03:14:25;;;;;;;86.80;49.10;;;;;;;0.49;100.00;96900.75;106693;1254;72576;-77
2023/01/09 03:16:54;;;;;;;83.40;47.60;;;;;;;0.46;100.00;96892.94;106614;1255;60512;-76
2023/01/09 03:19:21;;;;;;;81.20;43.30;;;;;;;0.46;100.00;96885.48;106679;1254;60032;-77
2023/01/09 03:21:48;;;;;;;84.30;45.50;;;;;;;0.50;100.00;96889.95;106680;1252;73072;-77
2023/01/09 03:24:14;;;;;;;73.00;44.00;;;;;;;0.56;100.00;96875.06;106461;1254;60515;-78
2023/01/09 03:26:41;;;;;;;81.90;49.10;;;;;;;0.63;100.00;96864.18;106648;1254;59297;-78
2023/01/09 03:29:07;;;;;;;81.40;49.00;;;;;;;0.69;100.00;96860.48;106618;1256;61070;-78
2023/01/09 03:31:34;;;;;;;81.40;50.40;;;;;;;0.76;100.00;96856.79;106605;1254;60226;-78
2023/01/09 03:34:00;;;;;;;80.90;46.20;;;;;;;0.79;100.00;96857.06;106653;1254;60913;-79
2023/01/09 03:36:27;;;;;;;73.30;44.00;;;;;;;0.84;100.00;96861.56;106680;1254;60794;-78
2023/01/09 03:38:53;;;;;;;66.70;40.60;;;;;;;0.87;100.00;96848.59;106573;1253;60853;-78
2023/01/09 03:41:20;;;;;;;72.50;41.40;;;;;;;0.93;100.00;96848.23;106567;1254;61308;-77
2023/01/09 03:43:47;;;;;;;64.30;39.80;;;;;;;0.97;100.00;96838.84;106628;1254;61077;-78
2023/01/09 03:46:15;;;;;;;80.20;43.10;;;;;;;1.00;100.00;96830.02;106648;1255;72746;-77
2023/01/09 03:48:41;;;;;;;76.60;43.00;;;;;;;1.04;100.00;96832.13;106543;1254;71049;-77
2023/01/09 03:51:07;;;;;;;69.00;42.00;;;;;;;1.08;100.00;96826.86;106630;1254;60625;-77
2023/01/09 03:53:34;;;;;;;59.00;36.70;;;;;;;1.08;100.00;96823.57;106657;1253;60536;-77
2023/01/09 03:56:00;;;;;;;70.70;41.60;;;;;;;1.10;100.00;96820.96;106619;1252;60450;-79
2023/01/09 03:58:27;;;;;;;76.00;46.70;;;;;;;1.12;100.00;96822.12;106611;1254;59373;-78
2023/01/09 04:01:01;;;;;;;67.00;38.90;;;;;;;1.12;100.00;96817.64;106595;1254;61293;-77
2023/01/09 04:03:27;;;;;;;102.50;48.60;;;;;;;1.15;100.00;96812.92;106604;1254;71389;-77
2023/01/09 04:05:53;;;;;;;86.00;49.10;;;;;;;1.20;100.00;96807.59;106632;1254;60472;-78
2023/01/09 04:08:20;;;;;;;78.00;42.80;;;;;;;1.18;100.00;96802.60;106627;1254;60425;-79
2023/01/09 04:10:48;;;;;;;63.70;36.10;;;;;;;1.22;100.00;96805.27;106586;1254;60138;-77
2023/01/09 04:13:14;;;;;;;66.40;36.10;;;;;;;1.29;100.00;96801.41;106754;1254;71062;-78
2023/01/09 04:15:40;;;;;;;66.50;37.00;;;;;;;1.36;100.00;96803.19;106609;1254;59314;-78
2023/01/09 04:18:07;;;;;;;102.70;44.90;;;;;;;1.42;100.00;96803.20;106630;1256;60962;-79
2023/01/09 04:20:33;;;;;;;80.90;46.20;;;;;;;1.42;100.00;96788.41;106600;1254;60069;-79
2023/01/09 04:23:00;;;;;;;96.90;50.70;;;;;;;1.44;100.00;96788.30;106680;1254;59345;-77
2023/01/09 04:25:26;;;;;;;118.60;58.00;;;;;;;1.46;100.00;96781.30;106680;1255;59231;-78
2023/01/09 04:27:53;;;;;;;121.60;64.30;;;;;;;1.42;100.00;96787.98;106627;1253;60086;-78
2023/01/09 04:30:19;;;;;;;125.10;62.60;;;;;;;1.45;100.00;96791.80;106637;1254;61317;-78
2023/01/09 04:32:46;;;;;;;119.10;62.00;;;;;;;1.42;100.00;96782.15;106805;1253;61189;-77
2023/01/09 04:35:12;;;;;;;93.60;47.90;;;;;;;1.42;100.00;96779.28;106669;1254;61193;-78
2023/01/09 04:37:38;;;;;;;105.50;57.30;;;;;;;1.46;100.00;96781.61;106668;1254;60932;-78
2023/01/09 04:40:09;;;;;;;95.30;53.10;;;;;;;1.45;100.00;96781.44;106636;1254;59051;-78
2023/01/09 04:42:36;;;;;;;95.10;55.90;;;;;;;1.46;100.00;96767.80;106773;1252;60424;-77
2023/01/09 04:45:04;;;;;;;87.90;48.80;;;;;;;1.49;100.00;96769.42;106617;1252;60510;-77
2023/01/09 04:47:31;;;;;;;94.30;50.80;;;;;;;1.52;100.00;96760.58;106720;1254;72678;-79
2023/01/09 04:49:58;;;;;;;86.50;47.70;;;;;;;1.57;100.00;96759.57;106676;1251;71959;-77
2023/01/09 04:52:24;;;;;;;90.70;49.40;;;;;;;1.60;100.00;96756.06;106670;1254;72587;-77
2023/01/09 04:54:51;;;;;;;94.00;54.90;;;;;;;1.62;100.00;96752.92;106614;1257;60616;-77
2023/01/09 04:57:17;;;;;;;95.70;60.00;;;;;;;1.62;100.00;96743.64;106672;1254;60293;-79
2023/01/09 04:59:44;;;;;;;103.30;59.80;;;;;;;1.63;100.00;96746.39;106613;1254;60424;-79
2023/01/09 05:02:10;;;;;;;100.70;58.60;;;;;;;1.68;100.00;96740.81;106429;1253;61189;-78
2023/01/09 05:04:37;;;;;;;99.90;59.60;;;;;;;1.69;100.00;96737.61;106668;1256;60138;-79
2023/01/09 05:07:03;;;;;;;88.60;51.90;;;;;;;1.74;100.00;96727.63;106721;1254;61346;-77
2023/01/09 05:09:30;;;;;;;103.30;62.30;;;;;;;1.76;100.00;96734.31;106640;1253;59323;-77
2023/01/09 05:11:56;;;;;;;91.90;54.10;;;;;;;1.81;100.00;96733.13;106643;1254;60071;-78
2023/01/09 05:14:23;;;;;;;97.90;63.30;;;;;;;1.81;100.00;96722.83;106613;1255;59317;-79
2023/01/09 05:16:49;;;;;;;101.40;66.00;;;;;;;1.83;100.00;96733.14;106611;1254;59346;-77
2023/01/09 05:19:15;;;;;;;112.20;69.60;;;;;;;1.84;100.00;96721.29;106608;1255;61172;-78
2023/01/09 05:21:42;;;;;;;108.20;61.50;;;;;;;1.88;100.00;96732.87;106587;1252;61230;-77
2023/01/09 05:24:08;;;;;;;103.40;57.40;;;;;;;1.90;100.00;96732.41;106593;1254;59031;-77
2023/01/09 05:26:35;;;;;;;116.00;64.40;;;;;;;1.90;100.00;96737.86;106629;1254;61229;-77
2023/01/09 05:29:01;;;;;;;106.20;56.20;;;;;;;1.89;100.00;96740.67;106548;1254;60076;-78
2023/01/09 05:31:27;;;;;;;93.90;52.90;;;;;;;1.87;100.00;96723.60;106592;1254;61102;-78
2023/01/09 05:33:54;;;;;;;89.40;53.00;;;;;;;1.88;100.00;96727.61;106684;1254;61198;-78
2023/01/09 05:36:20;;;;;;;74.00;43.20;;;;;;;1.91;100.00;96735.14;106585;1254;59109;-79
2023/01/09 05:38:47;;;;;;;97.80;60.00;;;;;;;1.95;100.00;96727.77;106464;1254;61144;-77
2023/01/09 05:41:13;;;;;;;89.30;52.70;;;;;;;1.99;100.00;96736.16;106613;1254;61221;-77
2023/01/09 05:43:39;;;;;;;89.40;54.80;;;;;;;2.03;100.00;96734.68;106593;1256;59080;-77
2023/01/09 05:46:06;;;;;;;85.90;51.60;;;;;;;2.07;100.00;96740.96;106699;1254;60158;-77
2023/01/09 05:48:32;;;;;;;108.60;67.80;;;;;;;2.12;100.00;96737.52;106657;1252;60664;-79
2023/01/09 05:50:59;;;;;;;84.60;51.20;;;;;;;2.19;100.00;96741.80;106656;1254;60532;-79
2023/01/09 05:53:25;;;;;;;79.90;51.20;;;;;;;2.24;100.00;96740.40;106667;1254;59301;-77
2023/01/09 05:55:52;;;;;;;81.80;48.40;;;;;;;2.31;100.00;96740.33;106669;1253;61140;-77
2023/01/09 05:58:18;;;;;;;149.20;64.70;;;;;;;2.39;100.00;96742.20;106726;1254;59237;-77
2023/01/09 06:00:44;;;;;;;147.20;63.80;;;;;;;2.43;100.00;96735.33;106653;1255;61249;-79
2023/01/09 06:03:11;;;;;;;98.10;53.80;;;;;;;2.48;100.00;96741.72;106671;1254;59206;-77
2023/01/09 06:05:37;;;;;;;121.10;65.90;;;;;;;2.51;100.00;96742.11;106663;1254;60004;-78
2023/01/09 06:08:04;;;;;;;99.60;61.10;;;;;;;2.57;100.00;96730.75;106673;1254;60110;-78
2023/01/09 06:10:30;;;;;;;146.00;76.70;;;;;;;2.65;100.00;96726.02;106642;1254;60543;-77
2023/01/09 06:12:56;;;;;;;96.60;54.00;;;;;;;2.75;100.00;96720.63;106660;1255;59432;-77
2023/01/09 06:15:23;;;;;;;66.60;41.40;;;;;;;2.85;100.00;96714.94;106565;1254;60194;-78
2023/01/09 06:17:49;;;;;;;32.00;17.30;;;;;;;3.06;100.00;96706.87;106655;1254;59342;-78
2023/01/09 06:20:16;;;;;;;39.30;19.60;;;;;;;3.60;100.00;96711.68;106557;1253;59226;-77
2023/01/09 06:22:44;;;;;;;7.10;3.90;;;;;;;4.15;100.00;96711.58;106642;1254;59131;-79
2023/01/09 06:25:11;;;;;;;7.30;5.10;;;;;;;4.88;100.00;96706.40;106600;1254;60962;-79
2023/01/09 06:27:37;;;;;;;5.40;3.00;;;;;;;5.70;100.00;96701.96;106648;1257;61236;-79
2023/01/09 06:30:04;;;;;;;5.00;3.40;;;;;;;6.30;100.00;96697.61;106612;1254;61297;-77
2023/01/09 06:32:31;;;;;;;2.90;1.70;;;;;;;6.63;100.00;96697.82;106886;1255;59112;-79
2023/01/09 06:34:58;;;;;;;6.70;3.10;;;;;;;7.02;100.00;96698.80;106915;1254;60079;-79
2023/01/09 06:37:24;;;;;;;5.50;3.00;;;;;;;7.25;100.00;96707.78;106662;1254;72902;-79
2023/01/09 06:39:52;;;;;;;3.20;2.10;;;;;;;7.30;100.00;96710.63;106602;1253;59084;-77
2023/01/09 06:42:19;;;;;;;6.90;2.70;;;;;;;7.39;100.00;96711.25;106586;1253;71394;-79
2023/01/09 06:44:45;;;;;;;4.30;3.00;;;;;;;7.44;100.00;96716.10;106628;1253;60949;-79
2023/01/09 06:47:12;;;;;;;4.60;3.40;;;;;;;7.54;100.00;96709.36;106503;1252;60841;-77
2023/01/09 06:49:39;;;;;;;4.40;2.10;;;;;;;7.78;100.00;96716.31;106482;1254;73815;-79
2023/01/09 06:52:06;;;;;;;4.70;2.20;;;;;;;7.94;100.00;96715.62;106638;1256;71188;-79
2023/01/09 06:54:33;;;;;;;3.80;2.30;;;;;;;8.03;100.00;96723.25;106622;1254;72654;-79
2023/01/09 06:56:59;;;;;;;4.10;1.90;;;;;;;8.12;100.00;96721.21;106718;1254;60280;-77
2023/01/09 06:59:26;;;;;;;4.70;2.40;;;;;;;8.23;100.00;96718.17;106502;1253;60140;-79
2023/01/09 07:01:52;;;;;;;4.80;2.90;;;;;;;8.30;100.00;96718.65;106547;1256;679790;-77
2023/01/09 07:04:20;;;;;;;7.30;4.10;;;;;;;8.33;100.00;96721.08;106812;1254;60513;-79
2023/01/09 07:06:47;;;;;;;3.00;1.80;;;;;;;8.40;100.00;96722.52;106659;1254;71425;-77
2023/01/09 07:09:14;;;;;;;4.00;2.10;;;;;;;8.41;99.91;96723.67;106873;1254;59228;-79
2023/01/09 07:11:40;;;;;;;3.50;2.60;;;;;;;8.42;100.00;96729.27;106673;1255;60236;-79
2023/01/09 07:14:07;;;;;;;2.70;2.10;;;;;;;8.34;100.00;96723.13;106674;1255;73492;-79
2023/01/09 07:16:33;;;;;;;2.20;1.70;;;;;;;8.30;100.00;96724.37;107047;1254;60212;-79
2023/01/09 07:19:00;;;;;;;4.80;2.50;;;;;;;8.24;99.82;96723.23;107773;1255;59103;-78
2023/01/09 07:21:26;;;;;;;3.60;1.50;;;;;;;8.11;100.00;96717.14;107147;1252;59019;-77
2023/01/09 07:23:54;;;;;;;2.50;1.40;;;;;;;8.14;100.00;96716.49;106940;1254;59029;-77
2023/01/09 07:26:21;;;;;;;2.40;1.30;;;;;;;8.17;100.00;96716.60;108926;1253;73910;-78
2023/01/09 07:28:47;;;;;;;11.70;10.10;;;;;;;8.12;100.00;96725.10;109217;1254;58857;-77
2023/01/09 07:31:13;;;;;;;54.20;29.00;;;;;;;8.01;99.25;96728.94;107822;1254;60402;-79
2023/01/09 07:33:40;;;;;;;41.30;28.00;;;;;;;7.91;98.29;96726.93;106900;1255;60255;-79
2023/01/09 07:36:07;;;;;;;14.40;7.70;;;;;;;7.90;100.00;96727.45;109200;1254;58243;-80
2023/01/09 07:38:35;;;;;;;11.00;7.80;;;;;;;7.78;99.03;96726.65;109385;1252;74366;-80
2023/01/09 07:41:01;;;;;;;12.00;6.80;;;;;;;7.80;100.00;96733.80;109407;1254;70750;-78
2023/01/09 07:43:28;;;;;;;9.20;5.60;;;;;;;7.93;98.75;96732.90;109423;1254;58167;-78
2023/01/09 07:45:54;;;;;;;6.30;4.40;;;;;;;8.23;99.31;96722.02;109065;1253;60047;-77
2023/01/09 07:48:21;;;;;;;6.50;4.50;;;;;;;8.33;100.00;96729.63;109344;1253;58185;-79
2023/01/09 07:50:47;;;;;;;5.30;3.80;;;;;;;8.34;100.00;96727.48;107075;1253;59865;-77
2023/01/09 07:53:13;;;;;;;11.70;8.40;;;;;;;8.31;99.90;96725.59;107149;1255;61198;-79
2023/01/09 07:55:41;;;;;;;4.10;2.80;;;;;;;8.25;100.00;96725.70;106949;1254;59108;-78
2023/01/09 07:58:08;;;;;;;4.90;3.10;;;;;;;8.19;100.00;96726.77;107852;1254;60182;-79
2023/01/09 08:00:35;;;;;;;9.00;8.10;;;;;;;8.14;100.00;96723.03;106583;1254;60161;-78
2023/01/09 08:03:01;;;;;;;8.50;6.30;;;;;;;8.08;100.00;96728.77;106808;1256;73720;-77
2023/01/09 08:05:28;;;;;;;8.30;5.10;;;;;;;8.04;100.00;96726.21;106805;1253;71362;-76
2023/01/09 08:07:54;;;;;;;6.50;4.40;;;;;;;8.05;100.00;96728.30;108314;1253;58453;-78
2023/01/09 08:10:21;;;;;;;4.50;2.20;;;;;;;8.02;99.94;96728.48;107549;1253;60446;-78
2023/01/09 08:12:47;;;;;;;4.80;2.40;;;;;;;8.10;99.96;96724.81;108293;1253;58391;-77
2023/01/09 08:15:14;;;;;;;4.90;2.90;;;;;;;8.23;100.00;96723.64;106917;1252;73721;-76
2023/01/09 08:17:42;;;;;;;7.90;4.40;;;;;;;8.28;100.00;96720.78;107656;1253;71112;-78
2023/01/09 08:20:14;;;;;;;6.60;5.20;;;;;;;8.27;100.00;96714.38;107034;1257;71374;-78
2023/01/09 08:22:40;;;;;;;6.40;3.80;;;;;;;8.28;100.00;96713.55;106777;1253;59423;-79
2023/01/09 08:25:07;;;;;;;7.30;4.90;;;;;;;8.25;100.00;96710.48;107021;1254;61107;-78
2023/01/09 08:27:34;;;;;;;8.60;6.90;;;;;;;8.18;100.00;96707.02;108175;1253;72677;-78
2023/01/09 08:30:00;;;;;;;8.70;6.20;;;;;;;8.15;100.00;96702.28;107550;1256;61362;-76
2023/01/09 08:32:27;;;;;;;14.80;8.70;;;;;;;8.13;100.00;96703.66;106861;1253;59273;-76
2023/01/09 08:34:53;;;;;;;11.50;7.70;;;;;;;8.12;100.00;96705.84;106646;1253;61330;-76
2023/01/09 08:37:20;;;;;;;14.20;7.70;;;;;;;8.10;100.00;96704.08;107392;1253;59068;-76
2023/01/09 08:39:47;;;;;;;12.50;7.50;;;;;;;8.08;100.00;96706.59;107068;1253;74164;-78
2023/01/09 08:47:43;;;;;;;7.60;4.50;;;;;;;8.26;100.00;96707.71;108189;1256;59014;-79
2023/01/09 08:50:10;;;;;;;5.70;2.90;;;;;;;8.40;99.67;96700.24;107032;1258;61070;-76
2023/01/09 08:52:37;;;;;;;4.60;2.60;;;;;;;8.57;99.99;96702.34;106847;1258;72970;-78
2023/01/09 08:55:04;;;;;;;3.60;2.10;;;;;;;8.67;100.00;96707.80;106762;1254;61320;-78
2023/01/09 08:57:30;;;;;;;4.10;2.20;;;;;;;8.76;99.33;96707.95;107967;1253;72370;-76
2023/01/09 08:59:57;;;;;;;4.30;2.30;;;;;;;8.95;98.61;96702.99;107794;1254;60042;-76
2023/01/09 09:02:23;;;;;;;4.60;2.40;;;;;;;9.09;97.81;96701.52;106930;1254;58882;-76
2023/01/09 09:04:54;;;;;;;2.80;1.50;;;;;;;9.22;95.05;96706.66;106800;1257;59789;-79
2023/01/09 09:07:25;;;;;;;5.50;2.70;;;;;;;9.39;93.63;96705.98;107920;1254;70232;-77
2023/01/09 09:09:55;;;;;;;3.80;2.20;;;;;;;9.56;92.78;96702.20;107544;1256;71705;-76
2023/01/09 09:12:21;;;;;;;5.40;3.10;;;;;;;9.65;93.84;96703.56;106760;1254;60152;-78
2023/01/09 09:17:33;;;;;;;7.60;3.50;;;;;;;9.90;90.51;96704.59;107814;1256;73738;-77
2023/01/09 09:20:00;;;;;;;5.60;2.50;;;;;;;10.00;90.52;96700.27;107205;1258;60543;-77
2023/01/09 09:22:26;;;;;;;3.20;2.00;;;;;;;10.08;90.11;96695.05;107317;1254;60104;-79
2023/01/09 09:24:53;;;;;;;2.40;1.50;;;;;;;10.18;88.54;96699.16;107049;1256;60023;-77
2023/01/09 09:27:19;;;;;;;4.30;1.80;;;;;;;10.22;88.75;96694.11;107241;1253;58961;-77
2023/01/09 09:29:46;;;;;;;3.50;2.00;;;;;;;10.27;88.64;96693.34;107336;1257;59075;-77
2023/01/09 09:32:12;;;;;;;4.60;2.20;;;;;;;10.29;88.92;96692.12;106773;1254;59214;-78
2023/01/09 09:34:39;;;;;;;4.90;2.70;;;;;;;10.33;87.70;96686.41;106691;1256;61240;-78
2023/01/09 09:37:05;;;;;;;5.30;2.40;;;;;;;10.36;86.87;96678.75;106728;1256;60515;-77
2023/01/09 09:39:32;;;;;;;8.50;2.70;;;;;;;10.35;87.96;96678.20;107302;1254;58947;-78
2023/01/09 09:45:05;;;;;;;15.40;7.80;;;;;;;10.43;86.31;96671.71;108661;1256;70698;-77
2023/01/09 09:47:40;;;;;;;13.90;8.10;;;;;;;10.39;87.16;96669.58;109324;1254;71414;-77
2023/01/09 09:50:18;;;;;;;6.40;4.20;;;;;;;10.39;87.53;96658.21;108505;1258;61286;-77
2023/01/09 09:52:57;;;;;;;5.70;3.50;;;;;;;10.40;86.58;96656.24;107076;1258;60693;-79
2023/01/09 09:55:25;;;;;;;;;;;;;;;10.38;87.13;96662.58;107000;1256;73639;-79
2023/01/09 09:57:52;;;;;;;5.80;3.40;;;;;;;10.37;86.98;96660.91;107867;1254;70706;-79
2023/01/09 10:00:20;;;;;;;8.40;5.40;;;;;;;10.35;87.78;96662.92;107040;1254;60160;-79
2023/01/09 10:02:50;;;;;;;10.20;6.10;;;;;;;10.35;87.97;96658.87;107076;1256;60116;-76
2023/01/09 10:05:28;;;;;;;9.30;3.90;;;;;;;10.33;87.03;96663.40;107359;1254;59194;-78
2023/01/09 10:07:56;;;;;;;8.80;3.30;;;;;;;10.43;86.28;96664.08;108535;1257;72674;-79
2023/01/09 10:10:38;;;;;;;5.70;3.40;;;;;;;10.46;85.98;96661.73;107459;1254;70876;-79
2023/01/09 10:14:03;;;;;;;4.60;2.60;;;;;;;10.54;84.56;96659.66;107251;1256;72373;-76
2023/01/09 10:15:59;;;;;;;5.60;2.70;;;;;;;10.61;83.37;96654.60;106993;1254;60310;-76
2023/01/09 10:18:52;;;;;;;15.20;4.90;;;;;;;10.69;82.15;96643.11;108651;1254;60124;-79
2023/01/09 10:21:23;;;;;;;8.20;2.50;;;;;;;10.67;82.92;96642.02;109114;1257;73692;-77
2023/01/09 10:24:11;;;;;;;13.60;5.50;;;;;;;10.71;82.21;96637.90;107304;1257;71226;-79
2023/01/09 10:26:42;;;;;;;6.20;3.50;;;;;;;10.77;81.95;96630.20;106944;1254;71340;-79
2023/01/09 10:29:46;;;;;;;10.60;3.70;;;;;;;10.75;82.10;96626.84;107976;1254;60190;-77
2023/01/09 10:32:20;;;;;;;14.10;6.10;;;;;;;10.76;82.28;96614.20;107286;1257;60216;-76
2023/01/09 10:35:11;;;;;;;9.20;4.10;;;;;;;10.91;81.24;96613.59;108241;1254;73754;-79
2023/01/09 10:37:39;;;;;;;13.60;5.20;;;;;;;10.90;81.14;96608.27;108168;1252;70483;-77
2023/01/09 10:40:18;;;;;;;5.50;2.60;;;;;;;10.96;81.49;96608.33;107007;1254;72601;-76
2023/01/09 10:42:47;;;;;;;18.60;5.60;;;;;;;11.12;82.24;96602.73;106816;1252;60010;-76
2023/01/09 10:45:18;;;;;;;5.70;4.00;;;;;;;11.37;81.43;96606.95;107190;1256;60552;-79
2023/01/09 10:47:47;;;;;;;6.30;2.90;;;;;;;11.57;80.74;96605.45;108574;1254;73796;-77
2023/01/09 10:50:21;;;;;;;3.80;2.40;;;;;;;11.64;80.30;96600.86;107505;1255;71037;-79
2023/01/09 10:52:49;;;;;;;12.70;3.40;;;;;;;11.69;80.11;96599.23;106912;1254;72514;-76
2023/01/09 10:55:38;;;;;;;13.40;5.50;;;;;;;11.82;78.30;96600.94;108075;1254;58590;-79
2023/01/09 10:58:11;;;;;;;;;;;;;;;11.90;78.83;96599.48;107893;1253;60193;-76
2023/01/09 11:00:38;;;;;;;24.20;10.80;;;;;;;11.99;77.19;96600.43;107161;1253;73668;-77
2023/01/09 11:03:05;;;;;;;6.40;3.30;;;;;;;12.02;76.73;96596.80;107371;1254;71115;-76
2023/01/09 11:05:32;;;;;;;5.90;3.70;;;;;;;12.14;76.17;96594.23;108191;1254;72527;-77
2023/01/09 11:08:19;;;;;;;12.80;4.60;;;;;;;12.13;76.33;96594.58;108458;1254;60422;-79
2023/01/09 11:10:53;;;;;;;3.90;2.40;;;;;;;12.08;76.18;96589.55;109091;1254;59125;-77
2023/01/09 11:13:33;;;;;;;5.70;3.30;;;;;;;12.03;76.22;96581.83;107734;1254;72898;-79
2023/01/09 11:16:05;;;;;;;3.20;2.40;;;;;;;12.00;76.07;96580.85;108021;1254;70621;-77
2023/01/09 11:18:48;;;;;;;7.30;3.40;;;;;;;11.94;76.17;96580.25;109035;1252;71438;-77
2023/01/09 11:21:27;;;;;;;3.90;2.60;;;;;;;11.93;75.94;96577.41;108052;1254;60271;-79
2023/01/09 11:23:54;;;;;;;16.60;4.80;;;;;;;11.88;76.36;96577.84;108427;1254;60198;-77
2023/01/09 11:26:31;;;;;;;5.20;3.10;;;;;;;11.89;76.98;96579.59;107840;1255;73414;-79
2023/01/09 11:29:18;;;;;;;5.50;2.60;;;;;;;11.83;77.11;96578.70;109201;1253;71029;-79
2023/01/09 11:31:52;;;;;;;5.20;2.90;;;;;;;11.74;77.78;96573.95;108838;1253;71406;-76
2023/01/09 11:34:20;;;;;;;3.40;2.50;;;;;;;11.74;76.81;96572.16;109262;1251;58680;-79
2023/01/09 11:36:46;;;;;;;12.90;4.20;;;;;;;11.62;77.26;96574.52;109084;1252;59482;-76
2023/01/09 11:39:27;;;;;;;7.00;3.30;;;;;;;11.53;76.71;96569.79;109188;1253;58682;-76